Time,TemperatureF,DewpointF,PressureIn,WindDirection,WindDirectionDegrees,WindSpeedMPH,WindSpeedGustMPH,Humidity,HourlyPrecipIn,Conditions,Clouds,dailyrainin,SoftwareType,DateUTC
2013-11-04 00:07:00,46.4,45.0,30.18,South,170,4.0,9.0,95,0.15,,,0.23,Wunderground v.1.15,2013-11-04 08:07:00,
2013-11-04 00:17:00,46.4,45.0,30.18,SSE,148,5.0,10.0,95,0.07,,,0.24,Wunderground v.1.15,2013-11-04 08:17:00,
2013-11-04 00:27:00,46.4,45.0,30.18,SSE,152,4.0,7.0,95,0.00,,,0.24,Wunderground v.1.15,2013-11-04 08:27:00,
2013-11-04 00:37:00,46.3,44.9,30.18,SE,146,5.0,5.0,95,0.00,,,0.24,Wunderground v.1.15,2013-11-04 08:37:00,
2013-11-04 00:47:00,46.3,44.9,30.18,SSE,156,4.0,8.0,95,0.00,,,0.24,Wunderground v.1.15,2013-11-04 08:47:00,
2013-11-04 00:57:00,46.3,44.9,30.17,South,175,4.0,8.0,95,0.00,,,0.24,Wunderground v.1.15,2013-11-04 08:57:00,
2013-11-04 01:02:00,46.3,44.9,30.17,SSE,148,6.0,12.0,95,0.00,,,0.24,Wunderground v.1.15,2013-11-04 09:02:00,
2013-11-04 01:12:00,46.2,44.8,30.17,SSE,155,5.0,9.0,95,0.00,,,0.24,Wunderground v.1.15,2013-11-04 09:12:00,
2013-11-04 01:22:00,46.1,44.7,30.17,SSE,163,3.0,3.0,95,0.00,,,0.24,Wunderground v.1.15,2013-11-04 09:22:00,
2013-11-04 01:32:00,46.2,44.8,30.17,SSE,157,3.0,3.0,95,0.00,,,0.24,Wunderground v.1.15,2013-11-04 09:32:00,
2013-11-04 01:42:00,46.4,45.0,30.17,SSW,200,3.0,6.0,95,0.00,,,0.24,Wunderground v.1.15,2013-11-04 09:42:00,
2013-11-04 01:47:00,46.5,45.1,30.17,SSW,206,5.0,11.0,95,0.00,,,0.24,Wunderground v.1.15,2013-11-04 09:47:00,
2013-11-04 01:52:00,46.6,45.2,30.17,SSE,163,3.0,8.0,95,0.00,,,0.24,Wunderground v.1.15,2013-11-04 09:52:00,
2013-11-04 01:57:00,46.6,45.2,30.17,SSE,163,3.0,8.0,95,0.00,,,0.24,Wunderground v.1.15,2013-11-04 09:57:00,
2013-11-04 02:07:00,46.5,45.1,30.16,SSE,166,1.0,7.0,95,0.00,,,0.24,Wunderground v.1.15,2013-11-04 10:07:00,
2013-11-04 02:17:00,46.5,45.1,30.17,ESE,123,1.0,5.0,95,0.00,,,0.24,Wunderground v.1.15,2013-11-04 10:17:00,
2013-11-04 02:22:00,46.5,45.1,30.17,East,92,1.0,1.0,95,0.00,,,0.24,Wunderground v.1.15,2013-11-04 10:22:00,
2013-11-04 02:32:00,46.4,45.0,30.17,ESE,103,1.0,4.0,95,0.00,,,0.25,Wunderground v.1.15,2013-11-04 10:32:00,
2013-11-04 02:37:00,46.4,45.0,30.16,SE,136,2.0,6.0,95,0.00,,,0.25,Wunderground v.1.15,2013-11-04 10:37:00,
2013-11-04 02:47:00,46.4,45.0,30.16,SE,140,4.0,9.0,95,0.05,,,0.26,Wunderground v.1.15,2013-11-04 10:47:00,
2013-11-04 02:52:00,46.4,45.0,30.16,SE,146,5.0,5.0,95,0.05,,,0.26,Wunderground v.1.15,2013-11-04 10:52:00,
2013-11-04 03:02:00,46.3,44.9,30.16,SSE,153,3.0,3.0,95,0.00,,,0.26,Wunderground v.1.15,2013-11-04 11:02:00,
2013-11-04 03:07:00,46.2,44.8,30.16,SSE,157,4.0,4.0,95,0.00,,,0.26,Wunderground v.1.15,2013-11-04 11:07:00,
2013-11-04 03:17:00,46.2,44.8,30.16,SSE,148,4.0,9.0,95,0.00,,,0.26,Wunderground v.1.15,2013-11-04 11:17:00,
2013-11-04 03:27:00,46.3,44.9,30.16,SSE,159,6.0,9.0,95,0.00,,,0.26,Wunderground v.1.15,2013-11-04 11:27:00,
2013-11-04 03:37:00,46.3,44.9,30.16,SSE,147,4.0,11.0,95,0.00,,,0.27,Wunderground v.1.15,2013-11-04 11:37:00,
2013-11-04 03:47:00,46.3,44.9,30.16,SSE,156,6.0,11.0,95,0.00,,,0.27,Wunderground v.1.15,2013-11-04 11:47:00,
2013-11-04 03:52:00,46.3,44.9,30.16,SSE,155,6.0,6.0,95,0.00,,,0.27,Wunderground v.1.15,2013-11-04 11:52:00,
2013-11-04 04:02:00,46.3,44.9,30.16,SSW,193,5.0,5.0,95,0.00,,,0.27,Wunderground v.1.15,2013-11-04 12:02:00,
2013-11-04 04:07:00,46.3,44.9,30.16,SSW,201,4.0,6.0,95,0.00,,,0.27,Wunderground v.1.15,2013-11-04 12:07:00,
2013-11-04 04:17:00,46.5,45.1,30.16,SSW,198,5.0,9.0,95,0.00,,,0.27,Wunderground v.1.15,2013-11-04 12:17:00,
2013-11-04 04:27:00,46.7,45.3,30.16,SSW,205,5.0,13.0,95,0.00,,,0.27,Wunderground v.1.15,2013-11-04 12:27:00,
2013-11-04 04:32:00,46.7,45.3,30.16,SW,215,5.0,12.0,95,0.00,,,0.27,Wunderground v.1.15,2013-11-04 12:32:00,
2013-11-04 04:37:00,46.8,45.4,30.16,SSW,202,5.0,12.0,95,0.00,,,0.27,Wunderground v.1.15,2013-11-04 12:37:00,
2013-11-04 04:47:00,46.8,45.4,30.16,SW,217,6.0,13.0,95,0.00,,,0.27,Wunderground v.1.15,2013-11-04 12:47:00,
2013-11-04 04:57:00,46.7,45.3,30.16,SW,215,6.0,11.0,95,0.00,,,0.27,Wunderground v.1.15,2013-11-04 12:57:00,
2013-11-04 05:02:00,46.7,45.3,30.16,SW,215,6.0,6.0,95,0.00,,,0.27,Wunderground v.1.15,2013-11-04 13:02:00,
2013-11-04 05:12:00,46.6,45.2,30.16,South,169,4.0,11.0,95,0.00,,,0.28,Wunderground v.1.15,2013-11-04 13:12:00,
2013-11-04 05:17:00,46.7,45.3,30.17,SSE,167,4.0,11.0,95,0.00,,,0.28,Wunderground v.1.15,2013-11-04 13:17:00,
2013-11-04 05:27:00,46.7,45.3,30.17,SSE,148,3.0,7.0,95,0.04,,,0.29,Wunderground v.1.15,2013-11-04 13:27:00,
2013-11-04 05:37:00,46.8,45.4,30.17,SSW,208,5.0,5.0,95,0.09,,,0.31,Wunderground v.1.15,2013-11-04 13:37:00,
2013-11-04 05:47:00,46.9,45.5,30.17,SSW,192,6.0,17.0,95,0.05,,,0.31,Wunderground v.1.15,2013-11-04 13:47:00,
2013-11-04 05:57:00,46.9,45.5,30.18,SSW,212,7.0,17.0,95,0.09,,,0.33,Wunderground v.1.15,2013-11-04 13:57:00,
2013-11-04 06:07:00,46.9,45.5,30.18,South,186,7.0,13.0,95,0.05,,,0.33,Wunderground v.1.15,2013-11-04 14:07:00,
2013-11-04 06:17:00,47.0,45.6,30.18,SSW,205,6.0,8.0,95,0.00,,,0.33,Wunderground v.1.15,2013-11-04 14:17:00,
2013-11-04 06:22:00,47.0,45.6,30.17,SSW,198,7.0,7.0,95,0.00,,,0.34,Wunderground v.1.15,2013-11-04 14:22:00,
2013-11-04 06:32:00,47.0,45.6,30.17,South,183,7.0,7.0,95,0.00,,,0.34,Wunderground v.1.15,2013-11-04 14:32:00,
2013-11-04 06:42:00,46.9,45.5,30.17,SSW,203,7.0,14.0,95,0.00,,,0.34,Wunderground v.1.15,2013-11-04 14:42:00,
2013-11-04 06:52:00,46.9,45.5,30.17,South,178,6.0,15.0,95,0.00,,,0.34,Wunderground v.1.15,2013-11-04 14:52:00,
2013-11-04 07:02:00,46.8,45.4,30.17,South,189,6.0,6.0,95,0.00,,,0.34,Wunderground v.1.15,2013-11-04 15:02:00,
2013-11-04 07:12:00,46.8,45.7,30.16,SSW,196,6.0,6.0,96,0.00,,,0.34,Wunderground v.1.15,2013-11-04 15:12:00,
2013-11-04 07:17:00,46.8,45.7,30.16,South,177,5.0,12.0,96,0.00,,,0.34,Wunderground v.1.15,2013-11-04 15:17:00,
2013-11-04 07:27:00,46.8,45.7,30.17,South,174,5.0,9.0,96,0.00,,,0.34,Wunderground v.1.15,2013-11-04 15:27:00,
2013-11-04 07:37:00,46.8,45.7,30.17,SE,146,5.0,12.0,96,0.00,,,0.34,Wunderground v.1.15,2013-11-04 15:37:00,
2013-11-04 07:47:00,46.8,45.7,30.17,South,171,6.0,8.0,96,0.00,,,0.34,Wunderground v.1.15,2013-11-04 15:47:00,
2013-11-04 07:57:00,46.9,45.8,30.17,South,177,4.0,10.0,96,0.00,,,0.34,Wunderground v.1.15,2013-11-04 15:57:00,
2013-11-04 08:02:00,46.9,45.8,30.17,South,175,4.0,9.0,96,0.00,,,0.34,Wunderground v.1.15,2013-11-04 16:02:00,
2013-11-04 08:12:00,47.0,45.9,30.17,South,181,5.0,5.0,96,0.00,,,0.34,Wunderground v.1.15,2013-11-04 16:12:00,
2013-11-04 08:22:00,47.0,45.9,30.17,South,175,4.0,4.0,96,0.00,,,0.34,Wunderground v.1.15,2013-11-04 16:22:00,
2013-11-04 08:32:00,47.2,46.1,30.17,South,173,3.0,9.0,96,0.00,,,0.34,Wunderground v.1.15,2013-11-04 16:32:00,
2013-11-04 08:42:00,47.3,46.2,30.17,SSW,202,3.0,9.0,96,0.00,,,0.34,Wunderground v.1.15,2013-11-04 16:42:00,
2013-11-04 08:47:00,47.4,46.3,30.17,South,173,4.0,9.0,96,0.00,,,0.34,Wunderground v.1.15,2013-11-04 16:47:00,
2013-11-04 08:57:00,47.3,46.2,30.17,SSE,159,4.0,9.0,96,0.00,,,0.34,Wunderground v.1.15,2013-11-04 16:57:00,
2013-11-04 09:07:00,47.4,46.3,30.17,SSE,148,4.0,8.0,96,0.00,,,0.34,Wunderground v.1.15,2013-11-04 17:07:00,
2013-11-04 09:17:00,47.5,46.1,30.18,South,173,4.0,9.0,95,0.00,,,0.34,Wunderground v.1.15,2013-11-04 17:17:00,
2013-11-04 09:22:00,47.6,46.2,30.18,SSE,163,3.0,3.0,95,0.00,,,0.34,Wunderground v.1.15,2013-11-04 17:22:00,
2013-11-04 09:27:00,47.6,46.2,30.18,SSW,198,3.0,6.0,95,0.00,,,0.34,Wunderground v.1.15,2013-11-04 17:27:00,
2013-11-04 09:37:00,47.6,46.2,30.18,South,175,5.0,11.0,95,0.00,,,0.34,Wunderground v.1.15,2013-11-04 17:37:00,
2013-11-04 09:47:00,47.8,46.4,30.18,SSW,208,4.0,10.0,95,0.00,,,0.34,Wunderground v.1.15,2013-11-04 17:47:00,
2013-11-04 09:57:00,48.0,46.6,30.19,South,187,5.0,8.0,95,0.00,,,0.34,Wunderground v.1.15,2013-11-04 17:57:00,
2013-11-04 10:07:00,48.0,46.6,30.19,South,183,6.0,10.0,95,0.00,,,0.34,Wunderground v.1.15,2013-11-04 18:07:00,
2013-11-04 10:17:00,48.1,46.7,30.18,SSW,200,5.0,11.0,95,0.00,,,0.34,Wunderground v.1.15,2013-11-04 18:17:00,
2013-11-04 10:27:00,48.2,46.8,30.18,SSW,201,5.0,7.0,95,0.00,,,0.00,Wunderground v.1.15,2013-11-04 18:27:00,
2013-11-04 10:32:00,48.3,46.7,30.18,SSE,162,6.0,6.0,94,0.00,,,0.00,Wunderground v.1.15,2013-11-04 18:32:00,
2013-11-04 10:42:00,48.5,46.9,30.19,SSW,196,7.0,7.0,94,0.00,,,0.00,Wunderground v.1.15,2013-11-04 18:42:00,
2013-11-04 10:47:00,48.5,46.9,30.19,SW,219,7.0,12.0,94,0.00,,,0.00,Wunderground v.1.15,2013-11-04 18:47:00,
2013-11-04 10:57:00,48.6,47.0,30.20,SW,226,7.0,14.0,94,0.00,,,0.00,Wunderground v.1.15,2013-11-04 18:57:00,
2013-11-04 11:07:00,48.5,46.9,30.19,SSE,167,7.0,13.0,94,0.00,,,0.00,Wunderground v.1.15,2013-11-04 19:07:00,
2013-11-04 11:17:00,48.8,47.2,30.19,South,176,5.0,14.0,94,0.00,,,0.00,Wunderground v.1.15,2013-11-04 19:17:00,
2013-11-04 11:27:00,49.0,47.3,30.18,SSE,152,4.0,8.0,94,0.00,,,0.00,Wunderground v.1.15,2013-11-04 19:27:00,
2013-11-04 11:32:00,49.1,47.4,30.18,SSE,151,4.0,9.0,94,0.00,,,0.00,Wunderground v.1.15,2013-11-04 19:32:00,
2013-11-04 11:42:00,49.3,47.4,30.18,South,171,5.0,10.0,93,0.00,,,0.00,Wunderground v.1.15,2013-11-04 19:42:00,
2013-11-04 11:52:00,49.4,47.5,30.18,SSE,163,3.0,3.0,93,0.00,,,0.00,Wunderground v.1.15,2013-11-04 19:52:00,
2013-11-04 11:57:00,49.5,47.6,30.18,SSE,165,3.0,7.0,93,0.00,,,0.00,Wunderground v.1.15,2013-11-04 19:57:00,
2013-11-04 12:02:00,49.6,47.7,30.18,SSW,202,3.0,6.0,93,0.00,,,0.00,Wunderground v.1.15,2013-11-04 20:02:00,
2013-11-04 12:12:00,49.6,47.4,30.18,SSW,196,4.0,4.0,92,0.00,,,0.00,Wunderground v.1.15,2013-11-04 20:12:00,
2013-11-04 12:17:00,49.5,47.3,30.17,SW,215,5.0,7.0,92,0.00,,,0.00,Wunderground v.1.15,2013-11-04 20:17:00,
2013-11-04 12:27:00,49.3,47.1,30.17,SSW,200,5.0,10.0,92,0.00,,,0.00,Wunderground v.1.15,2013-11-04 20:27:00,
2013-11-04 12:32:00,49.1,46.9,30.17,South,183,6.0,9.0,92,0.00,,,0.00,Wunderground v.1.15,2013-11-04 20:32:00,
2013-11-04 12:42:00,49.2,47.0,30.17,SSW,193,5.0,5.0,92,0.00,,,0.00,Wunderground v.1.15,2013-11-04 20:42:00,
2013-11-04 12:47:00,49.3,47.1,30.17,SSE,155,4.0,7.0,92,0.00,,,0.00,Wunderground v.1.15,2013-11-04 20:47:00,
2013-11-04 12:57:00,49.3,47.1,30.17,South,174,4.0,8.0,92,0.00,,,0.00,Wunderground v.1.15,2013-11-04 20:57:00,
2013-11-04 13:07:00,49.3,47.1,30.17,SSW,196,4.0,4.0,92,0.00,,,0.01,Wunderground v.1.15,2013-11-04 21:07:00,
2013-11-04 13:17:00,49.2,47.0,30.17,SSW,205,4.0,7.0,92,0.06,,,0.02,Wunderground v.1.15,2013-11-04 21:17:00,
2013-11-04 13:27:00,49.3,47.4,30.17,South,171,3.0,10.0,93,0.04,,,0.02,Wunderground v.1.15,2013-11-04 21:27:00,
2013-11-04 13:37:00,49.5,47.6,30.17,South,188,3.0,7.0,93,0.00,,,0.03,Wunderground v.1.15,2013-11-04 21:37:00,
2013-11-04 13:42:00,49.4,47.5,30.17,South,171,4.0,8.0,93,0.00,,,0.03,Wunderground v.1.15,2013-11-04 21:42:00,
2013-11-04 13:52:00,48.7,46.8,30.17,SSW,202,7.0,15.0,93,0.00,,,0.03,Wunderground v.1.15,2013-11-04 21:52:00,
2013-11-04 13:57:00,48.4,46.5,30.17,SSW,200,8.0,15.0,93,0.00,,,0.03,Wunderground v.1.15,2013-11-04 21:57:00,
2013-11-04 14:07:00,48.3,46.4,30.17,SSE,157,7.0,18.0,93,0.00,,,0.03,Wunderground v.1.15,2013-11-04 22:07:00,
2013-11-04 14:12:00,48.4,46.5,30.16,SSW,205,6.0,15.0,93,0.00,,,0.03,Wunderground v.1.15,2013-11-04 22:12:00,
2013-11-04 14:22:00,48.3,46.4,30.16,SSW,210,6.0,6.0,93,0.00,,,0.03,Wunderground v.1.15,2013-11-04 22:22:00,
2013-11-04 14:32:00,48.2,46.3,30.16,SSW,198,6.0,11.0,93,0.00,,,0.03,Wunderground v.1.15,2013-11-04 22:32:00,
2013-11-04 14:42:00,48.2,46.3,30.16,SSW,213,6.0,6.0,93,0.00,,,0.04,Wunderground v.1.15,2013-11-04 22:42:00,
2013-11-04 14:52:00,48.3,46.7,30.16,SSW,199,3.0,6.0,94,0.00,,,0.04,Wunderground v.1.15,2013-11-04 22:52:00,
2013-11-04 14:57:00,48.3,46.7,30.15,SSW,200,3.0,6.0,94,0.00,,,0.05,Wunderground v.1.15,2013-11-04 22:57:00,
2013-11-04 15:07:00,48.1,46.2,30.15,SW,215,5.0,10.0,93,0.00,,,0.05,Wunderground v.1.15,2013-11-04 23:07:00,
2013-11-04 15:17:00,48.1,46.5,30.16,SSE,162,4.0,8.0,94,0.00,,,0.06,Wunderground v.1.15,2013-11-04 23:17:00,
2013-11-04 15:27:00,48.3,46.7,30.16,SSE,163,1.0,5.0,94,0.00,,,0.06,Wunderground v.1.15,2013-11-04 23:27:00,
2013-11-04 15:37:00,48.5,46.9,30.15,SSE,159,1.0,6.0,94,0.00,,,0.07,Wunderground v.1.15,2013-11-04 23:37:00,
2013-11-04 15:42:00,48.7,47.1,30.15,SSE,150,1.0,7.0,94,0.05,,,0.08,Wunderground v.1.15,2013-11-04 23:42:00,
2013-11-04 15:52:00,48.8,47.2,30.16,SE,132,2.0,6.0,94,0.05,,,0.08,Wunderground v.1.15,2013-11-04 23:52:00,
2013-11-04 16:02:00,48.9,47.2,30.16,SE,126,1.0,4.0,94,0.00,,,0.09,Wunderground v.1.15,2013-11-05 00:02:00,
2013-11-04 16:07:00,48.8,47.2,30.16,SE,136,1.0,4.0,94,0.00,,,0.09,Wunderground v.1.15,2013-11-05 00:07:00,
2013-11-04 16:17:00,48.7,47.1,30.16,SSW,211,3.0,6.0,94,0.00,,,0.09,Wunderground v.1.15,2013-11-05 00:17:00,
2013-11-04 16:27:00,48.6,47.2,30.15,SSE,148,3.0,8.0,95,0.00,,,0.10,Wunderground v.1.15,2013-11-05 00:27:00,
2013-11-04 16:37:00,48.6,47.2,30.15,SSE,148,4.0,9.0,95,0.05,,,0.11,Wunderground v.1.15,2013-11-05 00:37:00,
2013-11-04 16:47:00,48.6,47.2,30.15,SSE,148,3.0,10.0,95,0.00,,,0.11,Wunderground v.1.15,2013-11-05 00:47:00,
2013-11-04 16:52:00,48.6,47.2,30.15,SSE,151,4.0,10.0,95,0.00,,,0.11,Wunderground v.1.15,2013-11-05 00:52:00,
2013-11-04 17:02:00,48.5,47.1,30.15,SSE,153,4.0,6.0,95,0.00,,,0.11,Wunderground v.1.15,2013-11-05 01:02:00,
2013-11-04 17:07:00,48.5,47.1,30.15,SSE,150,4.0,8.0,95,0.00,,,0.11,Wunderground v.1.15,2013-11-05 01:07:00,
2013-11-04 17:17:00,48.5,47.1,30.15,SSE,151,2.0,5.0,95,0.00,,,0.12,Wunderground v.1.15,2013-11-05 01:17:00,
2013-11-04 17:27:00,48.5,47.1,30.15,SSE,152,4.0,7.0,95,0.00,,,0.12,Wunderground v.1.15,2013-11-05 01:27:00,
2013-11-04 17:37:00,48.5,47.1,30.15,SSE,156,3.0,6.0,95,0.00,,,0.13,Wunderground v.1.15,2013-11-05 01:37:00,
2013-11-04 17:42:00,48.5,47.1,30.15,SSE,153,3.0,3.0,95,0.00,,,0.13,Wunderground v.1.15,2013-11-05 01:42:00,
2013-11-04 17:52:00,48.5,47.1,30.15,SSE,153,3.0,3.0,95,0.00,,,0.13,Wunderground v.1.15,2013-11-05 01:52:00,
2013-11-04 18:02:00,48.5,47.1,30.15,SSE,148,2.0,6.0,95,0.00,,,0.14,Wunderground v.1.15,2013-11-05 02:02:00,
2013-11-04 18:07:00,48.6,47.2,30.15,SSE,149,3.0,8.0,95,0.04,,,0.15,Wunderground v.1.15,2013-11-05 02:07:00,
2013-11-04 18:17:00,48.6,47.2,30.14,SE,141,2.0,7.0,95,0.04,,,0.15,Wunderground v.1.15,2013-11-05 02:17:00,
2013-11-04 18:27:00,48.7,47.3,30.15,SSE,151,3.0,6.0,95,0.00,,,0.15,Wunderground v.1.15,2013-11-05 02:27:00,
2013-11-04 18:37:00,48.7,47.3,30.15,SSE,148,3.0,5.0,95,0.00,,,0.15,Wunderground v.1.15,2013-11-05 02:37:00,
2013-11-04 18:47:00,48.7,47.3,30.15,SSE,152,4.0,9.0,95,0.00,,,0.16,Wunderground v.1.15,2013-11-05 02:47:00,
2013-11-04 18:52:00,48.8,47.4,30.15,SE,143,3.0,3.0,95,0.10,,,0.17,Wunderground v.1.15,2013-11-05 02:52:00,
2013-11-04 19:02:00,48.9,47.5,30.15,SSE,150,5.0,9.0,95,0.04,,,0.17,Wunderground v.1.15,2013-11-05 03:02:00,
2013-11-04 19:12:00,49.0,47.6,30.15,SSE,153,3.0,6.0,95,0.00,,,0.18,Wunderground v.1.15,2013-11-05 03:12:00,
2013-11-04 19:22:00,49.1,47.7,30.14,SE,145,4.0,10.0,95,0.00,,,0.18,Wunderground v.1.15,2013-11-05 03:22:00,
2013-11-04 19:32:00,49.2,47.8,30.14,SSE,150,5.0,9.0,95,0.00,,,0.18,Wunderground v.1.15,2013-11-05 03:32:00,
2013-11-04 19:42:00,49.2,47.8,30.14,SSE,150,5.0,5.0,95,0.00,,,0.19,Wunderground v.1.15,2013-11-05 03:42:00,
2013-11-04 19:52:00,49.2,47.8,30.13,SE,146,5.0,10.0,95,0.00,,,0.19,Wunderground v.1.15,2013-11-05 03:52:00,
2013-11-04 20:02:00,49.3,47.9,30.13,SE,146,4.0,11.0,95,0.00,,,0.19,Wunderground v.1.15,2013-11-05 04:02:00,
2013-11-04 20:12:00,49.3,47.9,30.12,SE,145,5.0,5.0,95,0.00,,,0.19,Wunderground v.1.15,2013-11-05 04:12:00,
2013-11-04 20:22:00,49.4,48.0,30.12,SSE,163,6.0,10.0,95,0.00,,,0.19,Wunderground v.1.15,2013-11-05 04:22:00,
2013-11-04 20:32:00,49.6,48.2,30.12,South,178,6.0,6.0,95,0.00,,,0.19,Wunderground v.1.15,2013-11-05 04:32:00,
2013-11-04 20:42:00,49.6,48.5,30.12,SSE,165,5.0,10.0,96,0.00,,,0.20,Wunderground v.1.15,2013-11-05 04:42:00,
2013-11-04 20:52:00,49.7,48.6,30.13,SSE,155,5.0,11.0,96,0.04,,,0.21,Wunderground v.1.15,2013-11-05 04:52:00,
2013-11-04 21:02:00,49.8,48.7,30.12,South,169,5.0,10.0,96,0.04,,,0.21,Wunderground v.1.15,2013-11-05 05:02:00,
2013-11-04 21:07:00,49.9,48.8,30.12,SSE,151,5.0,10.0,96,0.00,,,0.21,Wunderground v.1.15,2013-11-05 05:07:00,
2013-11-04 21:12:00,49.9,48.8,30.12,SSE,158,6.0,11.0,96,0.00,,,0.22,Wunderground v.1.15,2013-11-05 05:12:00,
2013-11-04 21:17:00,49.9,48.8,30.12,SSE,154,6.0,13.0,96,0.00,,,0.22,Wunderground v.1.15,2013-11-05 05:17:00,
2013-11-04 21:22:00,49.9,48.8,30.13,SSE,153,6.0,12.0,96,0.05,,,0.23,Wunderground v.1.15,2013-11-05 05:22:00,
2013-11-04 21:32:00,49.9,48.8,30.12,SSE,151,6.0,12.0,96,0.08,,,0.24,Wunderground v.1.15,2013-11-05 05:32:00,
2013-11-04 21:37:00,49.9,48.8,30.12,SSE,163,5.0,12.0,96,0.08,,,0.25,Wunderground v.1.15,2013-11-05 05:37:00,
2013-11-04 21:47:00,49.9,48.8,30.12,SE,146,5.0,11.0,96,0.10,,,0.26,Wunderground v.1.15,2013-11-05 05:47:00,
2013-11-04 21:57:00,50.0,48.9,30.12,South,184,7.0,12.0,96,0.08,,,0.28,Wunderground v.1.15,2013-11-05 05:57:00,
2013-11-04 22:07:00,50.1,49.0,30.12,SSE,152,4.0,7.0,96,0.10,,,0.29,Wunderground v.1.15,2013-11-05 06:07:00,
2013-11-04 22:17:00,50.1,49.0,30.12,South,184,6.0,13.0,96,0.11,,,0.31,Wunderground v.1.15,2013-11-05 06:17:00,
2013-11-04 22:27:00,50.3,49.2,30.12,SE,141,9.0,15.0,96,0.05,,,0.32,Wunderground v.1.15,2013-11-05 06:27:00,
2013-11-04 22:37:00,50.3,49.2,30.12,SSW,203,7.0,18.0,96,0.05,,,0.32,Wunderground v.1.15,2013-11-05 06:37:00,
2013-11-04 22:47:00,50.4,49.3,30.12,South,178,6.0,10.0,96,0.04,,,0.33,Wunderground v.1.15,2013-11-05 06:47:00,
2013-11-04 22:57:00,50.5,49.4,30.12,South,173,8.0,21.0,96,0.04,,,0.33,Wunderground v.1.15,2013-11-05 06:57:00,
2013-11-04 23:07:00,50.5,49.4,30.12,SSW,202,8.0,15.0,96,0.00,,,0.34,Wunderground v.1.15,2013-11-05 07:07:00,
2013-11-04 23:17:00,50.5,49.4,30.12,SW,221,10.0,17.0,96,0.00,,,0.34,Wunderground v.1.15,2013-11-05 07:17:00,
2013-11-04 23:22:00,50.4,49.3,30.12,SSW,196,11.0,11.0,96,0.04,,,0.35,Wunderground v.1.15,2013-11-05 07:22:00,
2013-11-04 23:32:00,50.3,49.2,30.12,SSW,207,10.0,10.0,96,0.04,,,0.35,Wunderground v.1.15,2013-11-05 07:32:00,
2013-11-04 23:42:00,50.3,49.2,30.12,South,184,10.0,10.0,96,0.00,,,0.36,Wunderground v.1.15,2013-11-05 07:42:00,
2013-11-04 23:52:00,50.4,49.3,30.12,South,179,11.0,20.0,96,0.00,,,0.36,Wunderground v.1.15,2013-11-05 07:52:00,